Time;durP1;ratioP1;P1;durP2;ratioP2;P2;SDS_P1;SDS_P2;PMS_P1;PMS_P2;Temp;Humidity;BMP_temperature;BMP_pressure;BME280_temperature;BME280_humidity;BME280_pressure;Samples;Min_cycle;Max_cycle;Signal;HPM_P1;HPM_P2
2022/05/26 00:02:25;;;;;;;16.58;10.20;;;12.90;99.90;;;;;;4966110;28;20050;-80
2022/05/26 00:05:56;;;;;;;16.65;11.00;;;12.90;99.90;;;;;;5041561;28;20048;-80
2022/05/26 00:09:59;;;;;;;22.08;11.07;;;12.90;99.90;;;;;;5026469;28;20044;-79
2022/05/26 00:13:51;;;;;;;;;;;;;;;;;;;;;
2022/05/26 00:17:42;;;;;;;21.10;11.73;;;12.90;99.90;;;;;;4939861;28;20526;-79
2022/05/26 00:21:38;;;;;;;18.27;11.70;;;13.00;99.90;;;;;;4944417;28;20117;-80
2022/05/26 00:24:33;;;;;;;17.83;12.45;;;13.00;99.90;;;;;;4918365;29;20063;-79
2022/05/26 01:04:10;;;;;;;;;;;;;;;;;;;;;
2022/05/26 07:46:10;;;;;;;2.35;0.70;;;16.80;99.90;;;;;;5017758;23;20056;-78
2022/05/26 08:23:08;;;;;;;;;;;;;;;;;;;;;
2022/05/26 08:29:03;;;;;;;2.30;0.63;;;21.80;99.90;;;;;;4855809;29;20057;-78
2022/05/26 08:31:38;;;;;;;3.50;0.50;;;21.80;99.90;;;;;;4846539;29;20100;-77
2022/05/26 08:34:07;;;;;;;1.15;0.40;;;22.20;99.90;;;;;;4845640;29;20468;-77
2022/05/26 08:36:37;;;;;;;1.25;0.30;;;22.70;99.90;;;;;;4876359;29;20096;-77
2022/05/26 08:39:14;;;;;;;2.15;0.50;;;23.00;99.90;;;;;;4848132;29;20417;-77
2022/05/26 08:41:49;;;;;;;2.88;0.68;;;23.50;99.90;;;;;;4863587;29;20040;-78
2022/05/26 08:44:42;;;;;;;1.40;0.50;;;23.60;99.90;;;;;;4862873;29;20076;-78
2022/05/26 08:47:20;;;;;;;2.67;0.65;;;23.40;99.90;;;;;;4853819;29;20033;-78
2022/05/26 08:50:42;;;;;;;2.90;0.60;;;23.00;99.90;;;;;;4883107;29;20067;-81
2022/05/26 08:53:31;;;;;;;3.22;0.47;;;22.70;99.90;;;;;;4896980;29;20040;-79
2022/05/26 08:56:45;;;;;;;4.55;0.70;;;23.00;99.90;;;;;;4853851;29;20037;-80
2022/05/26 08:59:38;;;;;;;1.40;0.40;;;23.40;99.90;;;;;;4789369;29;20054;-81
2022/05/26 09:02:42;;;;;;;1.45;0.43;;;23.90;99.90;;;;;;4826859;29;20049;-80
2022/05/26 09:06:03;;;;;;;3.35;0.73;;;24.10;99.90;;;;;;4893035;29;20159;-80
2022/05/26 09:15:22;;;;;;;1.80;0.45;;;23.70;99.90;;;;;;4902058;29;20047;-80
2022/05/26 09:18:24;;;;;;;2.53;0.45;;;23.40;99.90;;;;;;4882740;29;20049;-80
2022/05/26 09:21:22;;;;;;;1.45;0.40;;;23.30;99.90;;;;;;4847334;29;20037;-79
2022/05/26 09:24:17;;;;;;;1.58;0.60;;;24.00;99.90;;;;;;4849354;29;20101;-80
2022/05/26 09:27:00;;;;;;;1.40;0.40;;;24.60;99.90;;;;;;4825780;29;20061;-79
2022/05/26 09:30:01;;;;;;;1.48;0.50;;;24.70;99.90;;;;;;4857301;29;20046;-80
2022/05/26 09:32:35;;;;;;;3.33;0.57;;;24.60;99.90;;;;;;4879838;29;20045;-80
2022/05/26 09:35:22;;;;;;;1.55;0.43;;;23.80;99.90;;;;;;4886358;29;20092;-79
2022/05/26 09:38:03;;;;;;;1.15;0.43;;;23.00;99.90;;;;;;4886654;29;20601;-78
2022/05/26 09:40:46;;;;;;;0.80;0.32;;;22.30;99.90;;;;;;4886316;29;20044;-79
2022/05/26 09:43:15;;;;;;;1.52;0.88;;;21.70;99.90;;;;;;4909599;29;20033;-79
2022/05/26 09:45:45;;;;;;;1.75;0.60;;;21.50;99.90;;;;;;4878324;29;20503;-78
2022/05/26 09:48:17;;;;;;;1.13;0.38;;;21.30;99.90;;;;;;4854812;29;20037;-79
2022/05/26 09:51:12;;;;;;;0.90;0.30;;;21.00;99.90;;;;;;4848899;29;20041;-80
2022/05/26 09:53:44;;;;;;;2.03;0.57;;;20.60;99.90;;;;;;4868459;29;20047;-79
2022/05/26 09:56:54;;;;;;;1.50;0.52;;;20.30;99.90;;;;;;4857039;29;20096;-78
2022/05/26 09:59:38;;;;;;;1.20;0.60;;;20.00;99.90;;;;;;4865603;29;20482;-80
2022/05/26 10:02:30;;;;;;;1.48;0.60;;;19.70;99.90;;;;;;4857869;29;20499;-79
2022/05/26 10:05:29;;;;;;;2.70;0.60;;;19.40;99.90;;;;;;4866852;29;20080;-79
2022/05/26 10:08:38;;;;;;;2.03;1.00;;;19.20;99.90;;;;;;4880160;29;20057;-79
2022/05/26 10:11:20;;;;;;;3.00;0.90;;;19.00;99.90;;;;;;4778329;30;20088;-79
2022/05/26 10:14:22;;;;;;;1.98;0.80;;;19.20;99.90;;;;;;4861545;29;20091;-80
2022/05/26 10:17:13;;;;;;;2.60;1.60;;;20.30;99.90;;;;;;4882830;29;20355;-80
2022/05/26 10:20:26;;;;;;;3.35;1.50;;;21.20;99.90;;;;;;4860057;29;20131;-80
2022/05/26 10:27:34;;;;;;;3.85;1.02;;;22.10;99.90;;;;;;4788596;29;20115;-81
2022/05/26 10:30:37;;;;;;;5.05;1.40;;;23.00;99.90;;;;;;4776054;29;20495;-81
2022/05/26 10:33:45;;;;;;;1.88;1.00;;;23.50;99.90;;;;;;4865045;29;20043;-81
2022/05/26 10:39:39;;;;;;;3.30;1.10;;;24.20;99.90;;;;;;5125146;23;20286;-80
2022/05/26 10:43:16;;;;;;;;;;;;;;;;;;;;;
2022/05/26 10:46:51;;;;;;;1.83;1.05;;;24.20;99.90;;;;;;4768409;30;20113;-80
2022/05/26 10:50:22;;;;;;;3.38;1.17;;;24.70;99.90;;;;;;4818677;29;20045;-83
2022/05/26 10:54:16;;;;;;;3.05;0.77;;;25.30;99.90;;;;;;4750356;30;20129;-81
2022/05/26 10:57:25;;;;;;;1.08;0.52;;;25.70;99.90;;;;;;4717336;30;20052;-82
2022/05/26 11:01:14;;;;;;;;;;;;;;;;;;;;;
2022/05/26 11:08:09;;;;;;;2.97;0.82;;;25.30;99.90;;;;;;4845324;29;20052;-82
2022/05/26 11:17:55;;;;;;;2.20;0.68;;;25.80;98.20;;;;;;4843411;29;20048;-81
2022/05/26 11:20:57;;;;;;;2.40;0.60;;;26.00;98.40;;;;;;4828538;29;20084;-81
2022/05/26 11:27:02;;;;;;;2.78;0.60;;;26.30;98.60;;;;;;4819762;29;20048;-80
2022/05/26 11:29:44;;;;;;;3.00;0.70;;;26.50;99.90;;;;;;4854692;29;20048;-78
2022/05/26 11:36:19;;;;;;;4.53;0.98;;;26.70;91.30;;;;;;4872241;29;20080;-81
2022/05/26 11:39:14;;;;;;;2.65;0.80;;;26.70;99.70;;;;;;4861372;29;20049;-81
2022/05/26 11:42:37;;;;;;;5.10;1.15;;;26.90;99.80;;;;;;4825146;29;20050;-83
2022/05/26 11:45:53;;;;;;;2.50;0.88;;;26.70;91.10;;;;;;4813866;29;20052;-82
2022/05/26 11:48:32;;;;;;;3.28;0.70;;;26.40;90.60;;;;;;4847435;29;20041;-81
2022/05/26 11:51:06;;;;;;;1.60;0.60;;;26.30;96.10;;;;;;4827652;29;21064;-80
2022/05/26 11:53:57;;;;;;;2.28;0.70;;;26.00;98.00;;;;;;4820489;29;20114;-81
2022/05/26 11:56:27;;;;;;;2.85;0.82;;;25.60;91.50;;;;;;4805730;29;20077;-81
2022/05/26 11:59:32;;;;;;;2.03;0.80;;;25.50;99.60;;;;;;4828038;29;20041;-81
2022/05/26 12:02:36;;;;;;;5.57;1.00;;;25.70;96.20;;;;;;4811917;29;20041;-81
2022/05/26 12:05:30;;;;;;;3.20;0.73;;;25.70;97.10;;;;;;4811581;29;20058;-80
2022/05/26 12:08:52;;;;;;;2.78;0.88;;;25.30;92.40;;;;;;4875313;29;20463;-80
2022/05/26 12:12:04;;;;;;;2.80;0.90;;;25.20;93.70;;;;;;4826280;29;20502;-80
2022/05/26 12:15:15;;;;;;;3.60;0.70;;;25.40;92.90;;;;;;4810128;29;20054;-82
2022/05/26 12:18:05;;;;;;;3.22;0.80;;;25.50;93.50;;;;;;4844173;29;20047;-82
2022/05/26 12:21:28;;;;;;;3.08;0.80;;;25.70;92.20;;;;;;4876643;29;20491;-81
2022/05/26 12:24:37;;;;;;;3.53;0.73;;;26.20;90.30;;;;;;4829358;29;20524;-81
2022/05/26 12:28:03;;;;;;;2.90;0.70;;;26.40;90.90;;;;;;4873229;29;20409;-81
2022/05/26 12:30:52;;;;;;;1.67;0.88;;;26.20;90.80;;;;;;4829897;29;20049;-82
2022/05/26 12:34:02;;;;;;;1.85;0.80;;;26.20;92.40;;;;;;4836237;29;20057;-80
2022/05/26 12:37:15;;;;;;;4.00;0.85;;;26.20;92.10;;;;;;4892484;23;20036;-79
2022/05/26 12:40:39;;;;;;;2.58;0.98;;;26.50;83.50;;;;;;4880611;29;20492;-80
2022/05/26 12:44:05;;;;;;;;;;;;;;;;;;;;;
2022/05/26 12:47:12;;;;;;;3.92;1.00;;;27.30;89.80;;;;;;4876383;29;20120;-80
2022/05/26 12:50:03;;;;;;;2.92;1.02;;;27.50;81.50;;;;;;4881758;23;20523;-80
2022/05/26 12:52:42;;;;;;;2.25;0.88;;;26.80;86.30;;;;;;4865122;29;20635;-78
2022/05/26 12:55:18;;;;;;;5.15;1.23;;;26.30;86.60;;;;;;4850433;29;20052;-79
2022/05/26 12:57:53;;;;;;;2.58;0.93;;;25.70;89.90;;;;;;4855568;29;20518;-79
2022/05/26 13:00:32;;;;;;;3.92;0.80;;;25.30;91.70;;;;;;4863001;29;20041;-80
2022/05/26 13:03:07;;;;;;;3.20;0.80;;;25.40;90.60;;;;;;4864877;29;20051;-81
2022/05/26 13:05:43;;;;;;;4.15;0.95;;;25.20;85.90;;;;;;4864725;29;20079;-79
2022/05/26 13:08:16;;;;;;;4.80;1.05;;;24.80;93.70;;;;;;4857843;29;20040;-80
2022/05/26 13:10:43;;;;;;;5.05;1.10;;;25.10;94.00;;;;;;4864809;29;20041;-79
2022/05/26 13:13:32;;;;;;;3.30;1.00;;;25.20;95.40;;;;;;4863392;29;20124;-79
2022/05/26 13:16:22;;;;;;;3.20;0.70;;;25.10;92.70;;;;;;4849409;29;20053;-79
2022/05/26 13:18:48;;;;;;;4.75;1.38;;;24.90;91.80;;;;;;4864889;29;20496;-79
2022/05/26 13:21:29;;;;;;;4.05;1.00;;;24.90;95.30;;;;;;4850127;29;20053;-80
2022/05/26 13:23:55;;;;;;;4.15;0.90;;;24.70;91.90;;;;;;4863310;29;20526;-78
2022/05/26 13:26:21;;;;;;;6.65;1.13;;;24.70;95.50;;;;;;4850241;29;20045;-79
2022/05/26 13:28:53;;;;;;;3.15;0.95;;;24.50;93.20;;;;;;4850979;29;20396;-81
2022/05/26 13:34:06;;;;;;;5.90;1.10;;;23.90;94.20;;;;;;4863335;29;20105;-79
2022/05/26 13:36:36;;;;;;;4.43;1.42;;;23.70;95.70;;;;;;4860148;29;20072;-79
2022/05/26 13:39:12;;;;;;;4.47;1.35;;;23.50;94.90;;;;;;4841200;29;20098;-80
2022/05/26 13:41:40;;;;;;;6.05;1.38;;;23.30;95.10;;;;;;4862548;29;20427;-79
2022/05/26 13:44:09;;;;;;;3.75;1.00;;;23.00;96.30;;;;;;4847194;29;20046;-79
2022/05/26 13:46:43;;;;;;;3.45;1.20;;;22.80;97.70;;;;;;4850324;29;20052;-79
2022/05/26 13:49:33;;;;;;;3.67;1.20;;;22.80;97.90;;;;;;4862866;29;20045;-79
2022/05/26 13:52:19;;;;;;;4.32;1.52;;;22.80;95.90;;;;;;4847319;29;20365;-79
2022/05/26 13:55:03;;;;;;;4.32;1.25;;;22.70;96.80;;;;;;4862039;29;20037;-78
2022/05/26 13:57:48;;;;;;;3.17;1.17;;;22.60;97.20;;;;;;4864036;29;20527;-79
2022/05/26 14:00:29;;;;;;;5.50;1.27;;;22.40;95.40;;;;;;4841105;29;20045;-78
2022/05/26 14:03:15;;;;;;;2.55;1.20;;;22.30;97.80;;;;;;4842573;29;20045;-79
2022/05/26 14:06:05;;;;;;;2.22;1.00;;;22.30;98.30;;;;;;4845516;29;20048;-78
2022/05/26 14:08:31;;;;;;;4.72;1.10;;;22.30;96.00;;;;;;4863808;29;20049;-78
2022/05/26 14:10:58;;;;;;;3.20;1.10;;;22.20;97.00;;;;;;4864245;29;20080;-78
2022/05/26 14:13:26;;;;;;;3.00;1.08;;;22.10;97.70;;;;;;4862218;29;20123;-78
2022/05/26 14:16:05;;;;;;;3.42;1.05;;;22.00;97.90;;;;;;4863478;29;20037;-79
2022/05/26 14:18:30;;;;;;;3.42;1.05;;;22.00;98.40;;;;;;4863595;29;20037;-79
2022/05/26 14:20:57;;;;;;;4.03;1.20;;;21.80;98.70;;;;;;4864519;29;20093;-78
2022/05/26 14:23:24;;;;;;;2.25;1.00;;;21.60;98.40;;;;;;4863044;29;20091;-79
2022/05/26 14:26:21;;;;;;;5.28;1.10;;;21.40;98.10;;;;;;4865183;29;20044;-77
2022/05/26 14:28:46;;;;;;;4.30;1.00;;;21.30;96.90;;;;;;4859726;29;20496;-79
2022/05/26 14:31:26;;;;;;;3.72;0.95;;;21.10;97.80;;;;;;4861280;29;20061;-78
2022/05/26 14:34:28;;;;;;;5.15;1.02;;;21.00;97.20;;;;;;4860475;29;20048;-79
2022/05/26 14:36:54;;;;;;;1.65;0.80;;;20.80;96.90;;;;;;4846912;29;20057;-78
2022/05/26 14:39:19;;;;;;;2.67;0.88;;;20.70;98.70;;;;;;4862963;29;20156;-79
2022/05/26 14:41:45;;;;;;;2.80;0.93;;;20.50;98.80;;;;;;4862376;29;20554;-80
2022/05/26 14:44:12;;;;;;;3.85;1.20;;;20.40;98.70;;;;;;4862858;29;20037;-80
2022/05/26 14:46:38;;;;;;;4.25;1.20;;;20.30;99.30;;;;;;4865785;29;20097;-78
2022/05/26 14:49:04;;;;;;;2.97;1.13;;;20.30;99.90;;;;;;4864934;29;20045;-79
2022/05/26 14:51:31;;;;;;;4.43;1.38;;;20.20;99.80;;;;;;4862512;29;20079;-79
2022/05/26 14:56:46;;;;;;;6.07;1.40;;;20.20;99.90;;;;;;4864112;29;20091;-78
2022/05/26 14:59:12;;;;;;;5.00;1.40;;;20.20;99.90;;;;;;4860370;29;20400;-78
2022/05/26 15:01:37;;;;;;;3.75;1.10;;;20.20;99.90;;;;;;4857393;29;20113;-78
2022/05/26 15:04:04;;;;;;;3.03;1.23;;;20.20;99.90;;;;;;4854520;29;20128;-79
2022/05/26 15:06:38;;;;;;;5.65;1.35;;;20.20;99.90;;;;;;4845322;29;20412;-78
2022/05/26 15:09:07;;;;;;;1.77;0.75;;;20.20;99.90;;;;;;4849731;29;20124;-78
2022/05/26 15:11:33;;;;;;;2.22;0.80;;;20.20;99.90;;;;;;4863557;29;20049;-78
2022/05/26 15:13:58;;;;;;;4.55;1.17;;;20.10;99.90;;;;;;4863503;29;20543;-79
2022/05/26 15:16:24;;;;;;;2.78;1.20;;;19.90;99.90;;;;;;4862058;29;20041;-78
2022/05/26 15:18:51;;;;;;;3.33;1.10;;;19.80;99.90;;;;;;4862273;29;20051;-79
2022/05/26 15:21:16;;;;;;;4.15;1.10;;;19.60;99.90;;;;;;4862051;29;20045;-79
2022/05/26 15:23:42;;;;;;;3.78;1.10;;;19.50;99.90;;;;;;4838822;29;20048;-78
2022/05/26 15:26:08;;;;;;;4.10;1.27;;;19.30;99.90;;;;;;4855428;29;20449;-79
2022/05/26 15:28:36;;;;;;;3.80;1.23;;;19.10;99.90;;;;;;4861996;29;20416;-78
2022/05/26 15:31:02;;;;;;;5.32;1.30;;;18.90;99.90;;;;;;4846956;29;20044;-79
2022/05/26 15:33:28;;;;;;;5.85;1.30;;;18.70;99.90;;;;;;4862386;29;20045;-78
2022/05/26 15:35:54;;;;;;;4.13;1.35;;;18.60;99.90;;;;;;4844389;29;20049;-79
2022/05/26 15:38:20;;;;;;;3.63;1.40;;;18.50;99.90;;;;;;4840301;29;20047;-79
2022/05/26 15:40:45;;;;;;;4.88;1.80;;;18.40;99.90;;;;;;4847117;29;20045;-79
2022/05/26 15:43:11;;;;;;;3.88;1.23;;;18.30;99.90;;;;;;4862099;29;20037;-77
2022/05/26 15:45:37;;;;;;;5.80;1.58;;;18.20;99.90;;;;;;4861565;29;20432;-78
2022/05/26 15:48:11;;;;;;;6.68;1.40;;;18.20;99.90;;;;;;4838468;29;20089;-78
2022/05/26 15:50:37;;;;;;;3.22;1.45;;;18.10;99.90;;;;;;4841753;29;20034;-77
2022/05/26 15:53:03;;;;;;;4.30;1.42;;;18.00;99.90;;;;;;4858275;29;20037;-77
2022/05/26 15:55:28;;;;;;;2.75;1.30;;;17.90;99.90;;;;;;4846382;29;20052;-77
2022/05/26 15:57:54;;;;;;;3.85;1.20;;;17.90;99.90;;;;;;4844189;29;20041;-77
2022/05/26 16:00:25;;;;;;;2.97;1.05;;;17.90;99.90;;;;;;4844529;29;20493;-78
2022/05/26 16:02:51;;;;;;;5.22;1.40;;;17.90;99.90;;;;;;4842018;29;20045;-78
2022/05/26 16:05:19;;;;;;;2.65;1.23;;;17.90;99.90;;;;;;4846149;29;20044;-78
2022/05/26 16:07:47;;;;;;;4.57;1.40;;;17.80;99.90;;;;;;4859233;29;20067;-78
2022/05/26 16:10:14;;;;;;;4.18;1.38;;;17.80;99.90;;;;;;4857299;29;20049;-78
2022/05/26 16:12:40;;;;;;;4.38;1.27;;;17.70;99.90;;;;;;4856711;29;20041;-78
2022/05/26 16:15:10;;;;;;;4.18;1.30;;;17.70;99.90;;;;;;4843157;29;20125;-77
2022/05/26 16:17:36;;;;;;;3.72;1.05;;;17.60;99.90;;;;;;4860391;29;20120;-80
2022/05/26 16:20:01;;;;;;;3.53;1.20;;;17.60;99.90;;;;;;4846782;29;20076;-77
2022/05/26 16:22:29;;;;;;;2.30;1.10;;;17.60;99.90;;;;;;4847934;29;20045;-77
2022/05/26 16:24:54;;;;;;;1.85;1.13;;;17.50;99.90;;;;;;4840697;29;20124;-79
2022/05/26 16:27:20;;;;;;;2.95;1.30;;;17.50;99.90;;;;;;4845568;29;20161;-78
2022/05/26 16:29:46;;;;;;;3.03;1.10;;;17.50;99.90;;;;;;4855803;29;20049;-79
2022/05/26 16:32:11;;;;;;;3.50;1.25;;;17.40;99.90;;;;;;4859312;29;20491;-79
2022/05/26 16:34:37;;;;;;;3.78;1.60;;;17.40;99.90;;;;;;4860941;29;20036;-79
2022/05/26 16:37:03;;;;;;;5.10;1.67;;;17.40;99.90;;;;;;4861821;29;20041;-78
2022/05/26 16:39:33;;;;;;;5.07;1.92;;;17.30;99.90;;;;;;4845483;29;20496;-80
2022/05/26 16:41:59;;;;;;;5.32;1.65;;;17.30;99.90;;;;;;4858685;29;20037;-78
2022/05/26 16:44:28;;;;;;;4.65;1.85;;;17.30;99.90;;;;;;4859891;29;20063;-79
2022/05/26 16:46:54;;;;;;;6.38;1.90;;;17.30;99.90;;;;;;4845373;29;20037;-79
2022/05/26 16:49:20;;;;;;;4.47;2.00;;;17.30;99.90;;;;;;4844423;29;20044;-79
2022/05/26 16:51:49;;;;;;;3.58;1.92;;;17.20;99.90;;;;;;4858386;29;20036;-79
2022/05/26 16:54:27;;;;;;;4.72;2.15;;;17.10;99.90;;;;;;4857520;29;20040;-78
2022/05/26 16:56:54;;;;;;;6.38;2.22;;;17.10;99.90;;;;;;4844003;29;20209;-79
2022/05/26 16:59:20;;;;;;;5.22;1.90;;;17.00;99.90;;;;;;4845196;29;20052;-79
2022/05/26 17:01:46;;;;;;;3.35;1.67;;;16.90;99.90;;;;;;4846536;29;20063;-79
2022/05/26 17:04:11;;;;;;;5.13;1.67;;;16.90;99.90;;;;;;4860316;29;20548;-80
2022/05/26 17:06:37;;;;;;;5.30;1.70;;;16.80;99.90;;;;;;4841322;29;20488;-79
2022/05/26 17:09:07;;;;;;;3.58;1.58;;;16.70;99.90;;;;;;4857694;29;20408;-79
2022/05/26 17:11:32;;;;;;;3.38;1.30;;;16.70;99.90;;;;;;4860008;29;20171;-79
2022/05/26 17:22:10;;;;;;;4.63;1.80;;;16.50;99.90;;;;;;4851627;29;20057;-78
2022/05/26 17:24:36;;;;;;;5.38;2.00;;;16.40;99.90;;;;;;4843234;29;20037;-79
2022/05/26 17:27:05;;;;;;;5.00;1.70;;;16.40;99.90;;;;;;4857527;29;20033;-80
2022/05/26 17:29:31;;;;;;;5.10;1.42;;;16.40;99.90;;;;;;4835700;29;20052;-77
2022/05/26 17:31:56;;;;;;;3.33;1.58;;;16.40;99.90;;;;;;4894620;29;20507;-79
2022/05/26 17:34:23;;;;;;;4.70;1.70;;;16.30;99.90;;;;;;4854995;29;20540;-79
2022/05/26 17:36:51;;;;;;;3.47;1.80;;;16.30;99.90;;;;;;4857696;29;20522;-79
2022/05/26 17:39:26;;;;;;;4.57;1.55;;;16.30;99.90;;;;;;4850180;29;20033;-79
2022/05/26 17:41:52;;;;;;;4.80;1.80;;;16.30;99.90;;;;;;4850018;29;20044;-79
2022/05/26 17:44:20;;;;;;;5.60;1.77;;;16.20;99.90;;;;;;4865237;29;20611;-80
2022/05/26 17:46:46;;;;;;;3.78;1.40;;;16.20;99.90;;;;;;4863469;29;20056;-79
2022/05/26 17:49:16;;;;;;;3.53;1.73;;;16.20;99.90;;;;;;4859949;29;20041;-79
2022/05/26 17:51:44;;;;;;;4.50;2.00;;;16.10;99.90;;;;;;4863536;29;20049;-79
2022/05/26 17:54:19;;;;;;;2.65;1.75;;;16.10;99.90;;;;;;4849568;29;20033;-80
2022/05/26 17:56:45;;;;;;;8.63;2.47;;;16.10;99.90;;;;;;4850946;29;20048;-80
2022/05/26 17:59:13;;;;;;;3.30;1.73;;;16.10;99.90;;;;;;4852402;29;20068;-79
2022/05/26 18:01:39;;;;;;;7.38;2.20;;;16.00;99.90;;;;;;4864011;29;20056;-80
2022/05/26 18:04:06;;;;;;;6.93;2.05;;;16.00;99.90;;;;;;4863147;29;20076;-79
2022/05/26 18:06:32;;;;;;;3.60;2.15;;;16.00;99.90;;;;;;4847062;29;20517;-80
2022/05/26 18:08:57;;;;;;;5.25;2.17;;;16.00;99.90;;;;;;4841071;29;20530;-79
2022/05/26 18:11:23;;;;;;;4.88;2.30;;;16.00;99.90;;;;;;4862757;29;20076;-80
2022/05/26 18:13:49;;;;;;;5.25;2.40;;;16.00;99.90;;;;;;4862924;29;20512;-79
2022/05/26 18:16:28;;;;;;;3.38;2.10;;;16.00;99.90;;;;;;4862634;29;20515;-79
2022/05/26 18:19:04;;;;;;;5.38;2.00;;;16.00;99.90;;;;;;4843164;29;20080;-79
2022/05/26 18:21:36;;;;;;;5.80;2.60;;;16.00;99.90;;;;;;4858129;29;20096;-79
2022/05/26 18:24:02;;;;;;;6.38;2.28;;;16.00;99.90;;;;;;4846720;29;20047;-79
2022/05/26 18:26:28;;;;;;;5.88;2.75;;;15.90;99.90;;;;;;4860934;29;20112;-79
2022/05/26 18:28:54;;;;;;;5.95;2.38;;;15.90;99.90;;;;;;4843495;29;20044;-79
2022/05/26 18:31:27;;;;;;;4.60;2.33;;;15.90;99.90;;;;;;4854816;29;20499;-79
2022/05/26 18:33:56;;;;;;;4.43;2.50;;;15.90;99.90;;;;;;4838618;29;20049;-79
2022/05/26 18:36:21;;;;;;;6.20;2.50;;;15.90;99.90;;;;;;4846521;29;20512;-79
2022/05/26 18:38:50;;;;;;;5.20;2.50;;;15.90;99.90;;;;;;4846415;29;20055;-80
2022/05/26 18:41:15;;;;;;;4.43;2.70;;;15.90;99.90;;;;;;4837404;29;20029;-79
2022/05/26 18:43:41;;;;;;;4.32;2.85;;;15.90;99.90;;;;;;4848495;29;20045;-80
2022/05/26 18:46:09;;;;;;;6.60;3.10;;;15.90;99.90;;;;;;4863212;29;20449;-79
2022/05/26 18:48:34;;;;;;;6.47;3.00;;;15.80;99.90;;;;;;4852665;29;20078;-79
2022/05/26 18:51:00;;;;;;;5.75;2.63;;;15.80;99.90;;;;;;4861960;29;20080;-78
2022/05/26 18:53:26;;;;;;;8.95;3.05;;;15.70;99.90;;;;;;4844697;29;20210;-81
2022/05/26 18:55:53;;;;;;;5.78;2.47;;;15.60;99.90;;;;;;4844838;29;20045;-80
2022/05/26 18:58:21;;;;;;;5.00;2.35;;;15.50;99.90;;;;;;4861014;29;20576;-79
2022/05/26 19:00:51;;;;;;;4.47;2.78;;;15.50;99.90;;;;;;4846189;29;20045;-79
2022/05/26 19:03:18;;;;;;;5.65;2.72;;;15.40;99.90;;;;;;4844298;29;20041;-79
2022/05/26 19:05:58;;;;;;;7.40;2.83;;;15.40;99.90;;;;;;4847817;29;20586;-80
2022/05/26 19:08:28;;;;;;;7.25;2.80;;;15.40;99.90;;;;;;4844837;29;20404;-80
2022/05/26 19:10:56;;;;;;;6.65;3.38;;;15.30;99.90;;;;;;4849772;29;20044;-79
2022/05/26 19:13:32;;;;;;;8.18;3.63;;;15.20;99.90;;;;;;4861464;29;20510;-80
2022/05/26 19:15:58;;;;;;;6.80;3.10;;;15.10;99.90;;;;;;4850501;29;20124;-79
2022/05/26 19:18:24;;;;;;;8.73;3.20;;;15.00;99.90;;;;;;4846054;29;20161;-78
2022/05/26 19:20:54;;;;;;;4.68;2.90;;;15.00;99.90;;;;;;4836870;29;20033;-79
2022/05/26 19:23:22;;;;;;;5.25;2.78;;;15.00;99.90;;;;;;4859709;29;20053;-80
2022/05/26 19:25:53;;;;;;;6.10;2.88;;;14.90;99.90;;;;;;4851963;29;20484;-79
2022/05/26 19:28:27;;;;;;;7.95;3.63;;;14.90;99.90;;;;;;4860984;29;20119;-79
2022/05/26 19:30:55;;;;;;;5.57;3.10;;;14.80;99.90;;;;;;4848090;29;20124;-78
2022/05/26 19:33:22;;;;;;;6.45;3.40;;;14.80;99.90;;;;;;4851035;29;20041;-78
2022/05/26 19:35:48;;;;;;;7.97;3.22;;;14.80;99.90;;;;;;4836161;29;20397;-79
2022/05/26 19:38:14;;;;;;;9.85;3.63;;;14.70;99.90;;;;;;4854632;29;20045;-80
2022/05/26 19:40:40;;;;;;;7.95;3.35;;;14.70;99.90;;;;;;4842646;29;20045;-79
2022/05/26 19:43:07;;;;;;;5.35;3.10;;;14.70;99.90;;;;;;4848450;29;20036;-79
2022/05/26 19:45:34;;;;;;;5.63;3.00;;;14.70;99.90;;;;;;4860600;29;20252;-79
2022/05/26 19:48:00;;;;;;;5.32;3.38;;;14.70;99.90;;;;;;4858462;29;20036;-78
2022/05/26 19:50:26;;;;;;;5.80;3.40;;;14.70;99.90;;;;;;4860794;29;20037;-79
2022/05/26 19:52:53;;;;;;;7.28;3.40;;;14.60;99.90;;;;;;4860381;29;20052;-80
2022/05/26 19:55:19;;;;;;;5.63;3.30;;;14.70;99.90;;;;;;4862198;29;20124;-79
2022/05/26 19:57:46;;;;;;;8.80;3.67;;;14.60;99.90;;;;;;4861838;29;20156;-79
2022/05/26 20:00:15;;;;;;;6.13;3.53;;;14.70;99.90;;;;;;4836450;29;20060;-81
2022/05/26 20:02:41;;;;;;;5.03;3.40;;;14.60;99.90;;;;;;4858920;29;20105;-81
2022/05/26 20:05:08;;;;;;;6.40;3.58;;;14.60;99.90;;;;;;4845323;29;20045;-80
2022/05/26 20:07:34;;;;;;;6.75;3.88;;;14.60;99.90;;;;;;4845034;29;20049;-81
2022/05/26 20:09:59;;;;;;;6.32;3.70;;;14.60;99.90;;;;;;4843202;29;20394;-82
2022/05/26 20:12:25;;;;;;;6.57;3.80;;;14.50;99.90;;;;;;4857204;29;20132;-82
2022/05/26 20:14:50;;;;;;;4.90;3.25;;;14.50;99.90;;;;;;4859770;29;20488;-84
2022/05/26 20:17:18;;;;;;;7.70;4.40;;;14.50;99.90;;;;;;4860639;29;20041;-81
2022/05/26 20:19:48;;;;;;;7.13;3.97;;;14.50;99.90;;;;;;4847971;29;20053;-82
2022/05/26 20:22:13;;;;;;;6.47;3.88;;;14.50;99.90;;;;;;4846074;29;20361;-81
2022/05/26 20:24:39;;;;;;;6.53;4.13;;;14.50;99.90;;;;;;4846025;29;20068;-81
2022/05/26 20:27:04;;;;;;;7.43;4.25;;;14.50;99.90;;;;;;4836814;29;20053;-81
2022/05/26 20:29:32;;;;;;;9.95;4.32;;;14.50;99.90;;;;;;4828718;29;20070;-82
2022/05/26 20:32:03;;;;;;;6.57;3.80;;;14.40;99.90;;;;;;4829805;29;20049;-82
2022/05/26 20:34:28;;;;;;;7.47;4.13;;;14.40;99.90;;;;;;4828909;29;20045;-81
2022/05/26 20:36:55;;;;;;;6.25;3.88;;;14.30;99.90;;;;;;4844911;29;20389;-81
2022/05/26 20:39:20;;;;;;;6.72;4.68;;;14.30;99.90;;;;;;4858524;29;20142;-80
2022/05/26 20:41:47;;;;;;;5.60;4.00;;;14.30;99.90;;;;;;4839460;29;20090;-81
2022/05/26 20:44:13;;;;;;;8.63;4.32;;;14.30;99.90;;;;;;4855597;29;20053;-81
2022/05/26 20:46:39;;;;;;;8.68;4.15;;;14.30;99.90;;;;;;4862285;29;20045;-81
2022/05/26 20:49:20;;;;;;;11.88;4.63;;;14.20;99.90;;;;;;4861515;29;20124;-81
2022/05/26 20:51:46;;;;;;;7.30;4.30;;;14.20;99.90;;;;;;4852169;29;20072;-81
2022/05/26 20:54:11;;;;;;;9.23;4.55;;;14.20;99.90;;;;;;4842807;29;20071;-81
2022/05/26 20:56:38;;;;;;;11.05;4.43;;;14.10;99.90;;;;;;4842527;29;20486;-81
2022/05/26 20:59:03;;;;;;;6.70;4.18;;;14.10;99.90;;;;;;4862367;29;20060;-82
2022/05/26 21:05:06;;;;;;;6.38;4.10;;;14.10;99.90;;;;;;4846685;29;20420;-82
2022/05/26 21:08:01;;;;;;;9.95;4.63;;;14.00;99.90;;;;;;4831209;29;20045;-82
2022/05/26 21:10:47;;;;;;;8.25;4.72;;;14.10;99.90;;;;;;4843714;29;20037;-82
2022/05/26 21:14:05;;;;;;;5.75;4.30;;;14.00;99.90;;;;;;4806792;29;20509;-82
2022/05/26 21:16:53;;;;;;;7.53;4.93;;;13.90;99.90;;;;;;4798081;29;20062;-82
2022/05/26 21:19:35;;;;;;;8.63;4.97;;;14.00;99.90;;;;;;4827366;29;20038;-82
2022/05/26 21:22:17;;;;;;;6.90;4.80;;;14.00;99.90;;;;;;4812520;29;20065;-83
2022/05/26 21:25:03;;;;;;;5.65;4.32;;;14.00;99.90;;;;;;4811072;29;20041;-82
2022/05/26 21:27:42;;;;;;;5.68;4.40;;;14.00;99.90;;;;;;4823829;29;20033;-83
2022/05/26 21:30:15;;;;;;;7.80;5.50;;;14.00;99.90;;;;;;4819851;29;20138;-83
2022/05/26 21:33:04;;;;;;;7.60;4.78;;;14.10;99.90;;;;;;4831208;29;20128;-83
2022/05/26 21:35:41;;;;;;;10.88;5.38;;;14.10;99.90;;;;;;4827716;29;20412;-82
2022/05/26 21:38:26;;;;;;;7.25;4.35;;;14.10;99.90;;;;;;4818438;29;20034;-82
2022/05/26 21:41:13;;;;;;;10.80;5.10;;;14.00;99.90;;;;;;4884086;23;20056;-80
2022/05/26 21:43:45;;;;;;;6.63;4.50;;;14.10;99.90;;;;;;4868064;29;20045;-80
2022/05/26 21:46:32;;;;;;;8.45;4.95;;;14.10;99.90;;;;;;4870393;29;20064;-81
2022/05/26 21:49:37;;;;;;;9.25;5.00;;;14.10;99.90;;;;;;4867525;29;20518;-81
2022/05/26 21:52:04;;;;;;;7.32;4.60;;;14.20;99.90;;;;;;4885920;29;20068;-79
2022/05/26 21:54:57;;;;;;;9.23;5.30;;;14.20;99.90;;;;;;4873760;29;20064;-81
2022/05/26 21:58:17;;;;;;;7.20;4.80;;;14.10;99.90;;;;;;4879603;29;20127;-81
2022/05/26 22:01:45;;;;;;;6.65;4.90;;;14.20;99.90;;;;;;4886746;29;20053;-81
2022/05/26 22:11:42;;;;;;;10.00;5.50;;;14.10;99.90;;;;;;4920672;23;20053;-82
2022/05/26 22:15:04;;;;;;;;;;;;;;;;;;;;;
2022/05/26 22:18:26;;;;;;;9.95;5.75;;;14.10;99.90;;;;;;4803851;29;20057;-82
2022/05/26 23:46:32;;;;;;;5.53;2.00;;;12.50;99.90;;;;;;4910211;23;20080;-79
2022/05/26 23:48:57;;;;;;;5.60;2.10;;;12.60;99.90;;;;;;4882528;29;20040;-80
2022/05/26 23:51:23;;;;;;;3.63;1.98;;;12.60;99.90;;;;;;4899314;29;20037;-79
2022/05/26 23:53:51;;;;;;;6.97;2.63;;;12.60;99.90;;;;;;4864475;29;20044;-80
